sensor_id;sensor_type;location;lat;lon;timestamp;pressure;altitude;pressure_sealevel;temperature;humidity
53041;BME280;39326;42.650;23.248;2022-10-31T00:00:52;93089.50;;;13.73;48.93
53041;BME280;39326;42.650;23.248;2022-10-31T00:03:18;93090.22;;;13.77;48.88
53041;BME280;39326;42.650;23.248;2022-10-31T00:05:46;93084.88;;;13.74;48.78
53041;BME280;39326;42.650;23.248;2022-10-31T00:08:12;93079.13;;;13.75;48.56
53041;BME280;39326;42.650;23.248;2022-10-31T00:10:38;93074.94;;;13.71;49.25
53041;BME280;39326;42.650;23.248;2022-10-31T00:13:05;93081.09;;;13.64;49.69
53041;BME280;39326;42.650;23.248;2022-10-31T00:15:32;93078.41;;;13.64;49.65
53041;BME280;39326;42.650;23.248;2022-10-31T00:17:59;93079.56;;;13.67;49.60
53041;BME280;39326;42.650;23.248;2022-10-31T00:20:24;93082.25;;;13.52;49.83
53041;BME280;39326;42.650;23.248;2022-10-31T00:22:50;93082.28;;;13.45;50.09
53041;BME280;39326;42.650;23.248;2022-10-31T00:25:16;93084.59;;;13.43;50.58
53041;BME280;39326;42.650;23.248;2022-10-31T00:27:42;93085.38;;;13.47;50.13
53041;BME280;39326;42.650;23.248;2022-10-31T00:30:08;93090.31;;;13.52;49.96
53041;BME280;39326;42.650;23.248;2022-10-31T00:32:34;93074.22;;;13.56;50.03
53041;BME280;39326;42.650;23.248;2022-10-31T00:35:00;93076.88;;;13.63;49.81
53041;BME280;39326;42.650;23.248;2022-10-31T00:37:26;93079.16;;;13.68;49.77
53041;BME280;39326;42.650;23.248;2022-10-31T00:39:52;93076.09;;;13.70;49.88
53041;BME280;39326;42.650;23.248;2022-10-31T00:42:18;93071.91;;;13.62;50.12
53041;BME280;39326;42.650;23.248;2022-10-31T00:44:45;93072.69;;;13.62;50.05
53041;BME280;39326;42.650;23.248;2022-10-31T00:47:11;93069.22;;;13.58;49.72
53041;BME280;39326;42.650;23.248;2022-10-31T00:49:37;93070.75;;;13.66;50.06
53041;BME280;39326;42.650;23.248;2022-10-31T00:52:04;93075.31;;;13.73;49.89
53041;BME280;39326;42.650;23.248;2022-10-31T00:54:30;93075.72;;;13.68;50.43
53041;BME280;39326;42.650;23.248;2022-10-31T00:56:56;93060.38;;;13.72;49.97
53041;BME280;39326;42.650;23.248;2022-10-31T00:59:23;93071.44;;;13.81;49.84
53041;BME280;39326;42.650;23.248;2022-10-31T01:01:49;93068.78;;;13.84;49.70
53041;BME280;39326;42.650;23.248;2022-10-31T01:04:15;93070.69;;;13.88;49.52
53041;BME280;39326;42.650;23.248;2022-10-31T01:06:41;93080.66;;;13.80;50.02
53041;BME280;39326;42.650;23.248;2022-10-31T01:09:07;93077.22;;;13.72;49.92
53041;BME280;39326;42.650;23.248;2022-10-31T01:11:33;93080.31;;;13.67;50.21
53041;BME280;39326;42.650;23.248;2022-10-31T01:13:59;93073.44;;;13.66;50.42
53041;BME280;39326;42.650;23.248;2022-10-31T01:16:26;93075.75;;;13.53;50.92
53041;BME280;39326;42.650;23.248;2022-10-31T01:18:52;93081.47;;;13.63;50.72
53041;BME280;39326;42.650;23.248;2022-10-31T01:21:21;93087.59;;;13.63;50.82
53041;BME280;39326;42.650;23.248;2022-10-31T01:23:47;93084.16;;;13.59;51.12
53041;BME280;39326;42.650;23.248;2022-10-31T01:26:18;93092.97;;;13.59;51.07
53041;BME280;39326;42.650;23.248;2022-10-31T01:28:47;93088.75;;;13.62;51.07
53041;BME280;39326;42.650;23.248;2022-10-31T01:31:14;93089.88;;;13.68;50.55
53041;BME280;39326;42.650;23.248;2022-10-31T01:33:41;93082.25;;;13.67;51.12
53041;BME280;39326;42.650;23.248;2022-10-31T01:36:16;93083.00;;;13.64;51.95
53041;BME280;39326;42.650;23.248;2022-10-31T01:38:42;93073.00;;;13.75;51.16
53041;BME280;39326;42.650;23.248;2022-10-31T01:41:10;93080.31;;;13.67;51.90
53041;BME280;39326;42.650;23.248;2022-10-31T01:43:50;93082.25;;;13.67;51.73
53041;BME280;39326;42.650;23.248;2022-10-31T01:46:22;93081.81;;;13.75;51.12
53041;BME280;39326;42.650;23.248;2022-10-31T01:48:51;93087.53;;;13.88;50.86
53041;BME280;39326;42.650;23.248;2022-10-31T01:51:20;93080.63;;;13.94;50.52
53041;BME280;39326;42.650;23.248;2022-10-31T01:53:51;93080.97;;;14.00;50.54
53041;BME280;39326;42.650;23.248;2022-10-31T01:56:19;93083.66;;;14.00;50.82
53041;BME280;39326;42.650;23.248;2022-10-31T01:58:46;93084.81;;;13.95;50.99
53041;BME280;39326;42.650;23.248;2022-10-31T02:01:14;93082.84;;;14.06;50.64
53041;BME280;39326;42.650;23.248;2022-10-31T02:03:42;93084.03;;;14.02;50.90
53041;BME280;39326;42.650;23.248;2022-10-31T02:06:13;93083.25;;;14.05;50.80
53041;BME280;39326;42.650;23.248;2022-10-31T02:08:42;93082.44;;;14.11;50.48
53041;BME280;39326;42.650;23.248;2022-10-31T02:11:09;93073.22;;;14.16;50.26
53041;BME280;39326;42.650;23.248;2022-10-31T02:13:37;93076.31;;;14.11;51.04
53041;BME280;39326;42.650;23.248;2022-10-31T02:16:03;93078.56;;;14.16;50.80
53041;BME280;39326;42.650;23.248;2022-10-31T02:18:30;93068.63;;;14.17;50.56
53041;BME280;39326;42.650;23.248;2022-10-31T02:21:25;93064.78;;;14.18;50.28
53041;BME280;39326;42.650;23.248;2022-10-31T02:37:48;93084.38;;;14.11;51.05
53041;BME280;39326;42.650;23.248;2022-10-31T02:40:26;93102.06;;;13.98;51.50
53041;BME280;39326;42.650;23.248;2022-10-31T02:43:09;93089.06;;;13.89;52.35
53041;BME280;39326;42.650;23.248;2022-10-31T02:48:26;93094.06;;;13.83;52.61
53041;BME280;39326;42.650;23.248;2022-10-31T02:50:55;93098.25;;;13.81;52.88
53041;BME280;39326;42.650;23.248;2022-10-31T02:53:22;93104.81;;;13.73;52.86
53041;BME280;39326;42.650;23.248;2022-10-31T02:55:56;93104.03;;;13.72;52.99
53041;BME280;39326;42.650;23.248;2022-10-31T02:58:24;93101.00;;;13.67;53.48
53041;BME280;39326;42.650;23.248;2022-10-31T03:01:13;93107.53;;;13.55;54.35
53041;BME280;39326;42.650;23.248;2022-10-31T03:15:11;93109.13;;;13.20;55.27
53041;BME280;39326;42.650;23.248;2022-10-31T03:20:40;93112.94;;;13.16;54.83
53041;BME280;39326;42.650;23.248;2022-10-31T03:23:12;93109.91;;;13.10;55.25
53041;BME280;39326;42.650;23.248;2022-10-31T03:25:39;93110.28;;;13.01;55.30
53041;BME280;39326;42.650;23.248;2022-10-31T03:28:07;93109.16;;;13.06;55.41
53041;BME280;39326;42.650;23.248;2022-10-31T03:30:36;93118.31;;;13.09;54.97
53041;BME280;39326;42.650;23.248;2022-10-31T03:33:05;93117.56;;;13.08;54.81
53041;BME280;39326;42.650;23.248;2022-10-31T03:35:35;93119.09;;;13.06;54.83
53041;BME280;39326;42.650;23.248;2022-10-31T03:38:03;93121.78;;;13.02;55.12
53041;BME280;39326;42.650;23.248;2022-10-31T03:40:32;93117.97;;;12.99;55.13
53041;BME280;39326;42.650;23.248;2022-10-31T03:43:06;93122.16;;;12.97;55.14
53041;BME280;39326;42.650;23.248;2022-10-31T03:45:40;93123.31;;;12.96;55.08
53041;BME280;39326;42.650;23.248;2022-10-31T03:48:08;93127.91;;;12.95;55.52
53041;BME280;39326;42.650;23.248;2022-10-31T03:50:49;93124.44;;;12.95;55.67
53041;BME280;39326;42.650;23.248;2022-10-31T03:53:22;93121.00;;;12.87;55.52
53041;BME280;39326;42.650;23.248;2022-10-31T03:55:57;93128.28;;;12.87;56.12
53041;BME280;39326;42.650;23.248;2022-10-31T03:58:28;93133.63;;;12.87;56.32
53041;BME280;39326;42.650;23.248;2022-10-31T04:01:01;93127.88;;;12.77;56.84
53041;BME280;39326;42.650;23.248;2022-10-31T04:03:32;93129.81;;;12.73;56.88
53041;BME280;39326;42.650;23.248;2022-10-31T04:06:02;93125.97;;;12.67;57.17
53041;BME280;39326;42.650;23.248;2022-10-31T04:08:32;93131.28;;;12.64;57.15
53041;BME280;39326;42.650;23.248;2022-10-31T04:11:00;93136.63;;;12.57;57.40
53041;BME280;39326;42.650;23.248;2022-10-31T04:13:29;93137.00;;;12.51;57.62
53041;BME280;39326;42.650;23.248;2022-10-31T04:15:57;93135.84;;;12.42;58.32
53041;BME280;39326;42.650;23.248;2022-10-31T04:18:24;93137.38;;;12.43;57.86
53041;BME280;39326;42.650;23.248;2022-10-31T04:21:03;93136.22;;;12.44;57.99
53041;BME280;39326;42.650;23.248;2022-10-31T04:23:30;93127.84;;;12.49;57.94
53041;BME280;39326;42.650;23.248;2022-10-31T04:25:57;93137.41;;;12.54;58.04
53041;BME280;39326;42.650;23.248;2022-10-31T04:28:23;93131.66;;;12.55;58.01
53041;BME280;39326;42.650;23.248;2022-10-31T04:30:49;93140.09;;;12.61;58.10
53041;BME280;39326;42.650;23.248;2022-10-31T04:33:15;93140.09;;;12.64;57.90
53041;BME280;39326;42.650;23.248;2022-10-31T04:35:41;93139.72;;;12.66;58.01
53041;BME280;39326;42.650;23.248;2022-10-31T04:38:07;93141.28;;;12.67;58.20
53041;BME280;39326;42.650;23.248;2022-10-31T04:40:33;93136.63;;;12.64;58.25
53041;BME280;39326;42.650;23.248;2022-10-31T04:42:59;93140.09;;;12.64;57.99
53041;BME280;39326;42.650;23.248;2022-10-31T04:45:24;93147.34;;;12.64;58.14
53041;BME280;39326;42.650;23.248;2022-10-31T04:47:50;93143.56;;;12.68;58.16
53041;BME280;39326;42.650;23.248;2022-10-31T04:50:17;93139.72;;;12.66;58.25
53041;BME280;39326;42.650;23.248;2022-10-31T04:52:45;93144.28;;;12.58;58.92
53041;BME280;39326;42.650;23.248;2022-10-31T04:55:12;93142.38;;;12.48;59.04
53041;BME280;39326;42.650;23.248;2022-10-31T04:57:45;93152.69;;;12.57;58.72
53041;BME280;39326;42.650;23.248;2022-10-31T05:00:13;93155.00;;;12.65;58.29
53041;BME280;39326;42.650;23.248;2022-10-31T05:02:49;93153.91;;;12.66;58.61
53041;BME280;39326;42.650;23.248;2022-10-31T05:05:16;93156.91;;;12.65;58.79
53041;BME280;39326;42.650;23.248;2022-10-31T05:07:45;93161.16;;;12.69;58.85
53041;BME280;39326;42.650;23.248;2022-10-31T05:10:13;93164.97;;;12.75;58.58
53041;BME280;39326;42.650;23.248;2022-10-31T05:12:47;93172.25;;;12.75;58.85
53041;BME280;39326;42.650;23.248;2022-10-31T05:15:14;93169.94;;;12.77;58.84
53041;BME280;39326;42.650;23.248;2022-10-31T05:17:41;93170.75;;;12.85;58.41
53041;BME280;39326;42.650;23.248;2022-10-31T05:20:07;93178.38;;;12.90;58.39
53041;BME280;39326;42.650;23.248;2022-10-31T05:22:34;93163.84;;;12.80;58.85
53041;BME280;39326;42.650;23.248;2022-10-31T05:25:00;93175.69;;;12.90;58.79
53041;BME280;39326;42.650;23.248;2022-10-31T05:27:27;93173.41;;;12.92;58.89
53041;BME280;39326;42.650;23.248;2022-10-31T05:29:52;93172.63;;;12.84;58.96
53041;BME280;39326;42.650;23.248;2022-10-31T05:32:18;93175.69;;;12.90;58.74
53041;BME280;39326;42.650;23.248;2022-10-31T05:34:45;93178.00;;;12.81;58.84
53041;BME280;39326;42.650;23.248;2022-10-31T05:37:11;93174.53;;;12.84;58.87
53041;BME280;39326;42.650;23.248;2022-10-31T05:39:36;93185.25;;;12.84;58.90
53041;BME280;39326;42.650;23.248;2022-10-31T05:42:02;93175.31;;;12.81;58.80
53041;BME280;39326;42.650;23.248;2022-10-31T05:44:29;93184.09;;;12.70;59.59
53041;BME280;39326;42.650;23.248;2022-10-31T05:46:55;93190.97;;;12.75;59.40
53041;BME280;39326;42.650;23.248;2022-10-31T05:49:21;93193.97;;;12.59;60.35
53041;BME280;39326;42.650;23.248;2022-10-31T05:51:48;93187.53;;;12.67;60.04
53041;BME280;39326;42.650;23.248;2022-10-31T05:54:14;93190.59;;;12.73;60.15
53041;BME280;39326;42.650;23.248;2022-10-31T05:56:40;93188.31;;;12.75;59.88
53041;BME280;39326;42.650;23.248;2022-10-31T05:59:07;93192.88;;;12.78;59.83
53041;BME280;39326;42.650;23.248;2022-10-31T06:01:33;93196.72;;;12.81;60.05
53041;BME280;39326;42.650;23.248;2022-10-31T06:03:59;93197.13;;;12.79;60.34
53041;BME280;39326;42.650;23.248;2022-10-31T06:06:25;93194.78;;;12.77;60.36
53041;BME280;39326;42.650;23.248;2022-10-31T06:08:51;93199.41;;;12.81;60.53
53041;BME280;39326;42.650;23.248;2022-10-31T06:11:17;93207.81;;;12.79;60.89
53041;BME280;39326;42.650;23.248;2022-10-31T06:13:44;93208.56;;;12.83;60.80
53041;BME280;39326;42.650;23.248;2022-10-31T06:16:10;93204.75;;;12.84;61.16
53041;BME280;39326;42.650;23.248;2022-10-31T06:18:36;93207.81;;;12.90;60.68
53041;BME280;39326;42.650;23.248;2022-10-31T06:21:02;93204.41;;;12.93;60.77
53041;BME280;39326;42.650;23.248;2022-10-31T06:23:28;93208.22;;;12.92;61.28
53041;BME280;39326;42.650;23.248;2022-10-31T06:25:54;93218.56;;;13.04;61.04
53041;BME280;39326;42.650;23.248;2022-10-31T06:28:20;93210.16;;;13.06;61.12
53041;BME280;39326;42.650;23.248;2022-10-31T06:30:46;93218.56;;;13.04;61.23
53041;BME280;39326;42.650;23.248;2022-10-31T06:33:12;93229.66;;;12.99;61.56
53041;BME280;39326;42.650;23.248;2022-10-31T06:35:38;93225.84;;;13.11;61.15
53041;BME280;39326;42.650;23.248;2022-10-31T06:38:10;93220.88;;;13.16;60.74
53041;BME280;39326;42.650;23.248;2022-10-31T06:40:36;93233.09;;;13.28;60.56
53041;BME280;39326;42.650;23.248;2022-10-31T06:43:02;93225.09;;;13.35;60.76
53041;BME280;39326;42.650;23.248;2022-10-31T06:45:28;93233.88;;;13.36;60.68
53041;BME280;39326;42.650;23.248;2022-10-31T06:47:55;93238.06;;;13.15;61.81
53041;BME280;39326;42.650;23.248;2022-10-31T06:50:22;93226.22;;;13.20;61.09
53041;BME280;39326;42.650;23.248;2022-10-31T06:52:56;93239.25;;;13.28;61.56
53041;BME280;39326;42.650;23.248;2022-10-31T06:55:23;93243.84;;;13.42;61.09
53041;BME280;39326;42.650;23.248;2022-10-31T06:57:56;93227.00;;;13.49;60.90
53041;BME280;39326;42.650;23.248;2022-10-31T07:00:23;93224.28;;;13.59;60.41
53041;BME280;39326;42.650;23.248;2022-10-31T07:02:59;93229.66;;;13.74;60.42
53041;BME280;39326;42.650;23.248;2022-10-31T07:05:26;93231.56;;;13.88;59.94
53041;BME280;39326;42.650;23.248;2022-10-31T07:07:57;93238.81;;;14.01;59.74
53041;BME280;39326;42.650;23.248;2022-10-31T07:10:24;93241.84;;;14.14;59.42
53041;BME280;39326;42.650;23.248;2022-10-31T07:12:58;93246.09;;;14.11;58.88
53041;BME280;39326;42.650;23.248;2022-10-31T07:15:25;93238.84;;;13.80;59.72
53041;BME280;39326;42.650;23.248;2022-10-31T07:17:52;93251.09;;;13.99;59.03
53041;BME280;39326;42.650;23.248;2022-10-31T07:20:18;93251.06;;;14.13;58.57
53041;BME280;39326;42.650;23.248;2022-10-31T07:22:44;93246.44;;;14.14;58.46
53041;BME280;39326;42.650;23.248;2022-10-31T07:25:11;93252.94;;;14.20;58.15
53041;BME280;39326;42.650;23.248;2022-10-31T07:27:41;93241.88;;;14.10;58.34
53041;BME280;39326;42.650;23.248;2022-10-31T07:30:09;93237.22;;;14.22;57.71
53041;BME280;39326;42.650;23.248;2022-10-31T07:32:42;93230.66;;;14.33;57.38
53041;BME280;39326;42.650;23.248;2022-10-31T07:35:10;93225.66;;;14.43;57.44
53041;BME280;39326;42.650;23.248;2022-10-31T07:37:37;93227.13;;;14.58;57.14
53041;BME280;39326;42.650;23.248;2022-10-31T07:40:03;93227.81;;;14.73;56.88
53041;BME280;39326;42.650;23.248;2022-10-31T07:42:37;93230.41;;;14.90;56.46
53041;BME280;39326;42.650;23.248;2022-10-31T07:45:04;93236.50;;;15.02;56.62
53041;BME280;39326;42.650;23.248;2022-10-31T07:47:30;93221.13;;;15.06;56.16
53041;BME280;39326;42.650;23.248;2022-10-31T07:50:03;93222.97;;;15.16;55.87
53041;BME280;39326;42.650;23.248;2022-10-31T07:52:29;93227.81;;;15.39;55.62
53041;BME280;39326;42.650;23.248;2022-10-31T07:54:55;93220.03;;;15.52;55.09
53041;BME280;39326;42.650;23.248;2022-10-31T07:57:21;93220.59;;;15.73;55.10
53041;BME280;39326;42.650;23.248;2022-10-31T07:59:47;93221.53;;;15.97;54.59
53041;BME280;39326;42.650;23.248;2022-10-31T08:02:13;93211.75;;;16.14;54.34
53041;BME280;39326;42.650;23.248;2022-10-31T08:04:40;93227.22;;;16.41;53.73
53041;BME280;39326;42.650;23.248;2022-10-31T08:07:05;93234.97;;;16.69;53.15
53041;BME280;39326;42.650;23.248;2022-10-31T08:09:32;93233.19;;;16.86;52.70
53041;BME280;39326;42.650;23.248;2022-10-31T08:11:58;93231.97;;;16.94;52.23
53041;BME280;39326;42.650;23.248;2022-10-31T08:14:24;93232.81;;;17.18;51.51
53041;BME280;39326;42.650;23.248;2022-10-31T08:16:52;93234.47;;;17.09;50.72
53041;BME280;39326;42.650;23.248;2022-10-31T08:19:18;93233.09;;;17.24;50.56
53041;BME280;39326;42.650;23.248;2022-10-31T08:21:44;93230.25;;;17.34;50.47
53041;BME280;39326;42.650;23.248;2022-10-31T08:24:11;93236.13;;;17.53;50.24
53041;BME280;39326;42.650;23.248;2022-10-31T08:26:37;93235.09;;;17.70;49.88
53041;BME280;39326;42.650;23.248;2022-10-31T08:29:04;93228.34;;;17.58;48.94
53041;BME280;39326;42.650;23.248;2022-10-31T08:31:30;93232.13;;;17.88;48.61
53041;BME280;39326;42.650;23.248;2022-10-31T08:33:56;93234.31;;;17.93;48.61
53041;BME280;39326;42.650;23.248;2022-10-31T08:36:23;93226.00;;;18.27;47.97
53041;BME280;39326;42.650;23.248;2022-10-31T08:38:49;93238.94;;;18.16;48.26
53041;BME280;39326;42.650;23.248;2022-10-31T08:41:15;93237.28;;;18.42;47.82
53041;BME280;39326;42.650;23.248;2022-10-31T08:43:42;93234.97;;;18.44;47.79
53041;BME280;39326;42.650;23.248;2022-10-31T08:46:08;93240.00;;;18.42;47.49
53041;BME280;39326;42.650;23.248;2022-10-31T08:48:34;93239.03;;;18.52;47.57
53041;BME280;39326;42.650;23.248;2022-10-31T08:51:01;93239.38;;;18.94;47.18
53041;BME280;39326;42.650;23.248;2022-10-31T08:53:27;93237.31;;;19.18;46.78
53041;BME280;39326;42.650;23.248;2022-10-31T08:55:55;93240.47;;;19.33;46.27
53041;BME280;39326;42.650;23.248;2022-10-31T08:58:22;93233.06;;;19.53;45.53
53041;BME280;39326;42.650;23.248;2022-10-31T09:00:50;93232.66;;;19.71;44.88
53041;BME280;39326;42.650;23.248;2022-10-31T09:03:19;93237.84;;;19.94;44.17
53041;BME280;39326;42.650;23.248;2022-10-31T09:05:46;93237.91;;;20.07;43.57
53041;BME280;39326;42.650;23.248;2022-10-31T09:08:12;93236.91;;;20.34;43.58
53041;BME280;39326;42.650;23.248;2022-10-31T09:10:39;93237.78;;;20.43;42.60
53041;BME280;39326;42.650;23.248;2022-10-31T09:13:12;93236.50;;;20.48;41.75
53041;BME280;39326;42.650;23.248;2022-10-31T09:15:39;93228.56;;;20.41;42.09
53041;BME280;39326;42.650;23.248;2022-10-31T09:18:06;93222.19;;;20.47;43.10
53041;BME280;39326;42.650;23.248;2022-10-31T09:20:34;93228.38;;;20.48;42.42
53041;BME280;39326;42.650;23.248;2022-10-31T09:23:04;93238.22;;;20.42;42.22
53041;BME280;39326;42.650;23.248;2022-10-31T09:25:32;93230.38;;;20.60;41.83
53041;BME280;39326;42.650;23.248;2022-10-31T09:28:00;93230.22;;;20.93;41.97
53041;BME280;39326;42.650;23.248;2022-10-31T09:30:28;93220.94;;;21.19;41.38
53041;BME280;39326;42.650;23.248;2022-10-31T09:32:57;93218.97;;;21.32;41.50
53041;BME280;39326;42.650;23.248;2022-10-31T09:35:24;93222.66;;;21.51;41.34
53041;BME280;39326;42.650;23.248;2022-10-31T09:37:57;93231.56;;;21.77;39.63
53041;BME280;39326;42.650;23.248;2022-10-31T09:40:32;93218.75;;;21.91;39.60
53041;BME280;39326;42.650;23.248;2022-10-31T09:45:41;93228.75;;;21.55;40.04
53041;BME280;39326;42.650;23.248;2022-10-31T09:48:25;93226.13;;;21.77;40.32
53041;BME280;39326;42.650;23.248;2022-10-31T09:56:43;93223.78;;;22.01;40.34
53041;BME280;39326;42.650;23.248;2022-10-31T09:59:24;93223.28;;;21.94;39.76
53041;BME280;39326;42.650;23.248;2022-10-31T10:02:01;93219.88;;;22.15;37.70
53041;BME280;39326;42.650;23.248;2022-10-31T10:10:17;93212.97;;;21.88;39.82
53041;BME280;39326;42.650;23.248;2022-10-31T10:15:54;93208.59;;;22.04;38.98
53041;BME280;39326;42.650;23.248;2022-10-31T10:18:53;93208.00;;;22.22;38.48
53041;BME280;39326;42.650;23.248;2022-10-31T10:24:08;93202.75;;;22.49;38.36
53041;BME280;39326;42.650;23.248;2022-10-31T10:26:41;93201.22;;;22.26;38.42
53041;BME280;39326;42.650;23.248;2022-10-31T10:31:48;93193.09;;;22.13;38.63
53041;BME280;39326;42.650;23.248;2022-10-31T10:39:35;93182.66;;;22.68;36.78
53041;BME280;39326;42.650;23.248;2022-10-31T10:42:09;93183.66;;;22.84;35.81
53041;BME280;39326;42.650;23.248;2022-10-31T10:44:55;93180.44;;;22.76;36.66
53041;BME280;39326;42.650;23.248;2022-10-31T10:47:46;93179.69;;;23.07;35.72
53041;BME280;39326;42.650;23.248;2022-10-31T10:50:20;93178.44;;;23.30;35.69
53041;BME280;39326;42.650;23.248;2022-10-31T10:53:11;93172.44;;;23.13;35.28
53041;BME280;39326;42.650;23.248;2022-10-31T10:58:15;93182.34;;;23.60;35.17
53041;BME280;39326;42.650;23.248;2022-10-31T11:00:43;93180.59;;;23.93;34.59
53041;BME280;39326;42.650;23.248;2022-10-31T11:03:11;93176.69;;;24.04;34.94
53041;BME280;39326;42.650;23.248;2022-10-31T11:08:05;93172.44;;;24.67;33.08
53041;BME280;39326;42.650;23.248;2022-10-31T11:10:32;93172.94;;;24.98;32.57
53041;BME280;39326;42.650;23.248;2022-10-31T11:13:00;93173.03;;;25.13;32.82
53041;BME280;39326;42.650;23.248;2022-10-31T11:15:27;93161.44;;;24.85;32.01
53041;BME280;39326;42.650;23.248;2022-10-31T11:17:55;93168.31;;;24.53;32.18
53041;BME280;39326;42.650;23.248;2022-10-31T11:23:25;93159.84;;;24.14;32.44
53041;BME280;39326;42.650;23.248;2022-10-31T11:26:04;93153.88;;;23.70;31.97
53041;BME280;39326;42.650;23.248;2022-10-31T11:28:32;93158.56;;;23.60;32.54
53041;BME280;39326;42.650;23.248;2022-10-31T11:31:11;93118.19;;;24.14;31.83
53041;BME280;39326;42.650;23.248;2022-10-31T11:33:46;93152.53;;;24.75;32.23
53041;BME280;39326;42.650;23.248;2022-10-31T11:36:22;93151.41;;;24.91;31.67
53041;BME280;39326;42.650;23.248;2022-10-31T11:38:48;93136.25;;;24.90;32.00
53041;BME280;39326;42.650;23.248;2022-10-31T11:46:53;93147.34;;;25.29;31.79
53041;BME280;39326;42.650;23.248;2022-10-31T11:49:27;93140.38;;;25.61;30.85
53041;BME280;39326;42.650;23.248;2022-10-31T11:51:56;93137.59;;;25.70;31.12
53041;BME280;39326;42.650;23.248;2022-10-31T11:54:34;93137.94;;;25.87;31.03
53041;BME280;39326;42.650;23.248;2022-10-31T11:57:02;93130.75;;;25.99;31.46
53041;BME280;39326;42.650;23.248;2022-10-31T11:59:30;93134.03;;;25.79;30.74
53041;BME280;39326;42.650;23.248;2022-10-31T12:02:00;93137.69;;;26.24;29.76
53041;BME280;39326;42.650;23.248;2022-10-31T12:04:40;93129.50;;;26.00;28.79
53041;BME280;39326;42.650;23.248;2022-10-31T12:07:07;93129.63;;;25.81;30.09
53041;BME280;39326;42.650;23.248;2022-10-31T12:09:35;93125.06;;;26.02;29.78
53041;BME280;39326;42.650;23.248;2022-10-31T12:15:00;93123.75;;;25.17;29.50
53041;BME280;39326;42.650;23.248;2022-10-31T12:17:42;93123.44;;;24.72;30.03
53041;BME280;39326;42.650;23.248;2022-10-31T12:25:43;93129.13;;;25.92;30.02
53041;BME280;39326;42.650;23.248;2022-10-31T12:28:35;93138.78;;;26.17;30.04
53041;BME280;39326;42.650;23.248;2022-10-31T12:31:18;93128.03;;;26.52;28.92
53041;BME280;39326;42.650;23.248;2022-10-31T12:48:03;93121.06;;;26.27;28.89
53041;BME280;39326;42.650;23.248;2022-10-31T12:59:20;93130.16;;;24.44;31.60
53041;BME280;39326;42.650;23.248;2022-10-31T13:02:00;93117.75;;;24.24;31.61
53041;BME280;39326;42.650;23.248;2022-10-31T13:04:38;93121.38;;;24.03;31.49
53041;BME280;39326;42.650;23.248;2022-10-31T13:07:24;93126.38;;;23.86;32.28
53041;BME280;39326;42.650;23.248;2022-10-31T13:09:58;93123.47;;;23.53;33.20
53041;BME280;39326;42.650;23.248;2022-10-31T13:12:27;93126.66;;;23.20;33.39
53041;BME280;39326;42.650;23.248;2022-10-31T13:14:58;93125.34;;;22.94;33.80
53041;BME280;39326;42.650;23.248;2022-10-31T13:17:43;93125.09;;;22.70;34.78
53041;BME280;39326;42.650;23.248;2022-10-31T13:22:48;93119.06;;;22.22;35.07
53041;BME280;39326;42.650;23.248;2022-10-31T13:25:36;93124.22;;;22.07;34.91
53041;BME280;39326;42.650;23.248;2022-10-31T13:28:12;93125.69;;;21.99;35.30
53041;BME280;39326;42.650;23.248;2022-10-31T13:30:47;93123.09;;;21.96;35.64
53041;BME280;39326;42.650;23.248;2022-10-31T13:35:55;93115.94;;;21.89;35.51
53041;BME280;39326;42.650;23.248;2022-10-31T13:41:56;93113.81;;;21.71;35.58
53041;BME280;39326;42.650;23.248;2022-10-31T13:44:26;93118.09;;;21.59;36.31
53041;BME280;39326;42.650;23.248;2022-10-31T13:46:54;93117.44;;;21.55;35.92
53041;BME280;39326;42.650;23.248;2022-10-31T13:54:37;93122.63;;;21.28;36.33
53041;BME280;39326;42.650;23.248;2022-10-31T13:57:12;93120.22;;;21.17;37.16
53041;BME280;39326;42.650;23.248;2022-10-31T13:59:47;93114.88;;;21.01;37.54
53041;BME280;39326;42.650;23.248;2022-10-31T14:02:25;93117.94;;;20.90;38.35
53041;BME280;39326;42.650;23.248;2022-10-31T14:04:59;93123.47;;;20.74;38.43
53041;BME280;39326;42.650;23.248;2022-10-31T14:07:26;93119.66;;;20.59;38.58
53041;BME280;39326;42.650;23.248;2022-10-31T14:10:29;93115.00;;;20.46;38.75
53041;BME280;39326;42.650;23.248;2022-10-31T14:12:48;93120.47;;;20.30;38.76
53041;BME280;39326;42.650;23.248;2022-10-31T14:15:25;93127.28;;;20.22;39.09
53041;BME280;39326;42.650;23.248;2022-10-31T14:20:34;93119.38;;;19.98;39.41
53041;BME280;39326;42.650;23.248;2022-10-31T14:28:44;93125.28;;;19.81;39.88
53041;BME280;39326;42.650;23.248;2022-10-31T14:39:29;93127.34;;;19.44;40.54
53041;BME280;39326;42.650;23.248;2022-10-31T14:52:31;93132.75;;;18.79;42.64
53041;BME280;39326;42.650;23.248;2022-10-31T14:55:00;93133.41;;;18.66;42.99
53041;BME280;39326;42.650;23.248;2022-10-31T14:57:32;93121.75;;;18.50;43.68
53041;BME280;39326;42.650;23.248;2022-10-31T15:00:07;93130.16;;;18.35;43.77
53041;BME280;39326;42.650;23.248;2022-10-31T15:03:03;93123.53;;;18.20;44.12
53041;BME280;39326;42.650;23.248;2022-10-31T15:05:26;93133.09;;;18.05;44.21
53041;BME280;39326;42.650;23.248;2022-10-31T15:07:53;93123.31;;;17.91;44.68
53041;BME280;39326;42.650;23.248;2022-10-31T15:10:25;93139.66;;;17.84;44.78
53041;BME280;39326;42.650;23.248;2022-10-31T15:12:51;93130.97;;;17.73;44.93
53041;BME280;39326;42.650;23.248;2022-10-31T15:15:23;93128.88;;;17.60;45.37
53041;BME280;39326;42.650;23.248;2022-10-31T15:17:56;93130.50;;;17.54;45.44
53041;BME280;39326;42.650;23.248;2022-10-31T15:20:26;93139.16;;;17.46;45.58
53041;BME280;39326;42.650;23.248;2022-10-31T15:22:54;93134.31;;;17.37;45.79
53041;BME280;39326;42.650;23.248;2022-10-31T15:25:22;93139.41;;;17.31;45.75
53041;BME280;39326;42.650;23.248;2022-10-31T15:27:50;93146.00;;;17.27;45.89